sensor_id;sensor_type;location;lat;lon;timestamp;pressure;altitude;pressure_sealevel;temperature;humidity
13235;BME280;6683;48.506;9.050;2023-01-25T00:00:07;99666.38;;;6.23;71.05
13235;BME280;6683;48.506;9.050;2023-01-25T00:03:10;99666.38;;;6.23;71.38
13235;BME280;6683;48.506;9.050;2023-01-25T00:06:12;99672.47;;;6.23;71.24
13235;BME280;6683;48.506;9.050;2023-01-25T00:09:15;99665.56;;;6.22;71.71
13235;BME280;6683;48.506;9.050;2023-01-25T00:12:20;99654.22;;;6.22;71.24
13235;BME280;6683;48.506;9.050;2023-01-25T00:15:22;99650.78;;;6.21;71.33
13235;BME280;6683;48.506;9.050;2023-01-25T00:18:25;99642.22;;;6.19;71.25
13235;BME280;6683;48.506;9.050;2023-01-25T00:21:27;99633.38;;;6.20;71.47
13235;BME280;6683;48.506;9.050;2023-01-25T00:24:30;99627.28;;;6.20;71.49
13235;BME280;6683;48.506;9.050;2023-01-25T00:27:34;99627.28;;;6.20;71.15
13235;BME280;6683;48.506;9.050;2023-01-25T00:30:37;99625.50;;;6.20;71.62
13235;BME280;6683;48.506;9.050;2023-01-25T00:33:48;99641.38;;;6.19;71.18
13235;BME280;6683;48.506;9.050;2023-01-25T00:36:55;99637.91;;;6.18;71.67
13235;BME280;6683;48.506;9.050;2023-01-25T00:39:58;99647.47;;;6.19;71.43
13235;BME280;6683;48.506;9.050;2023-01-25T00:43:02;99646.63;;;6.19;71.70
13235;BME280;6683;48.506;9.050;2023-01-25T00:46:04;99629.91;;;6.20;71.53
13235;BME280;6683;48.506;9.050;2023-01-25T00:49:19;99617.66;;;6.20;71.46
13235;BME280;6683;48.506;9.050;2023-01-25T00:52:22;99610.63;;;6.21;71.10
13235;BME280;6683;48.506;9.050;2023-01-25T00:55:25;99621.13;;;6.21;71.13
13235;BME280;6683;48.506;9.050;2023-01-25T00:58:29;99612.41;;;6.20;71.51
13235;BME280;6683;48.506;9.050;2023-01-25T01:01:33;99618.63;;;6.19;71.52
13235;BME280;6683;48.506;9.050;2023-01-25T01:04:35;99618.63;;;6.19;71.32
13235;BME280;6683;48.506;9.050;2023-01-25T01:07:37;99614.44;;;6.17;71.60
13235;BME280;6683;48.506;9.050;2023-01-25T01:10:40;99617.91;;;6.17;71.68
13235;BME280;6683;48.506;9.050;2023-01-25T01:13:44;99618.84;;;6.16;71.93
13235;BME280;6683;48.506;9.050;2023-01-25T01:16:47;99616.22;;;6.16;71.80
13235;BME280;6683;48.506;9.050;2023-01-25T01:19:50;99611.00;;;6.16;71.18
13235;BME280;6683;48.506;9.050;2023-01-25T01:22:52;99609.22;;;6.17;71.54
13235;BME280;6683;48.506;9.050;2023-01-25T01:25:58;99609.22;;;6.17;71.25
13235;BME280;6683;48.506;9.050;2023-01-25T01:29:03;99608.38;;;6.16;71.25
13235;BME280;6683;48.506;9.050;2023-01-25T01:32:05;99609.22;;;6.17;71.24
13235;BME280;6683;48.506;9.050;2023-01-25T01:35:08;99608.38;;;6.16;71.88
13235;BME280;6683;48.506;9.050;2023-01-25T01:38:11;99610.06;;;6.17;71.32
13235;BME280;6683;48.506;9.050;2023-01-25T01:41:14;99617.06;;;6.17;71.65
13235;BME280;6683;48.506;9.050;2023-01-25T01:44:39;99611.84;;;6.17;71.22
13235;BME280;6683;48.506;9.050;2023-01-25T01:47:43;99617.19;;;6.15;71.26
13235;BME280;6683;48.506;9.050;2023-01-25T01:50:52;99612.91;;;6.14;71.69
13235;BME280;6683;48.506;9.050;2023-01-25T01:54:01;99616.38;;;6.15;71.41
13235;BME280;6683;48.506;9.050;2023-01-25T01:57:08;99613.84;;;6.13;71.32
13235;BME280;6683;48.506;9.050;2023-01-25T02:00:16;99611.13;;;6.15;71.43
13235;BME280;6683;48.506;9.050;2023-01-25T02:03:20;99610.16;;;6.16;71.42
13235;BME280;6683;48.506;9.050;2023-01-25T02:06:31;99607.66;;;6.14;71.67
13235;BME280;6683;48.506;9.050;2023-01-25T02:09:36;99615.41;;;6.16;71.48
13235;BME280;6683;48.506;9.050;2023-01-25T02:12:40;99616.47;;;6.13;71.42
13235;BME280;6683;48.506;9.050;2023-01-25T02:15:46;99611.22;;;6.13;71.16
13235;BME280;6683;48.506;9.050;2023-01-25T02:18:51;99606.81;;;6.14;71.38
13235;BME280;6683;48.506;9.050;2023-01-25T02:21:55;99609.44;;;6.14;71.89
13235;BME280;6683;48.506;9.050;2023-01-25T02:25:05;99605.97;;;6.13;71.47
13235;BME280;6683;48.506;9.050;2023-01-25T02:28:13;99609.44;;;6.14;71.46
13235;BME280;6683;48.506;9.050;2023-01-25T02:31:17;99602.41;;;6.14;71.89
13235;BME280;6683;48.506;9.050;2023-01-25T02:34:19;99596.09;;;6.17;71.47
13235;BME280;6683;48.506;9.050;2023-01-25T02:37:22;99592.63;;;6.16;71.68
13235;BME280;6683;48.506;9.050;2023-01-25T02:40:27;99602.41;;;6.14;71.20
13235;BME280;6683;48.506;9.050;2023-01-25T02:43:34;99600.63;;;6.15;71.76
13235;BME280;6683;48.506;9.050;2023-01-25T02:46:39;99588.34;;;6.15;71.56
13235;BME280;6683;48.506;9.050;2023-01-25T02:49:42;99588.34;;;6.15;71.65
13235;BME280;6683;48.506;9.050;2023-01-25T02:52:44;99588.25;;;6.17;71.41
13235;BME280;6683;48.506;9.050;2023-01-25T02:55:48;99585.63;;;6.17;71.51
13235;BME280;6683;48.506;9.050;2023-01-25T02:58:51;99580.38;;;6.17;71.71
13235;BME280;6683;48.506;9.050;2023-01-25T03:01:53;99578.69;;;6.16;71.27
13235;BME280;6683;48.506;9.050;2023-01-25T03:04:56;99580.38;;;6.17;71.50
13235;BME280;6683;48.506;9.050;2023-01-25T03:07:59;99583.00;;;6.17;71.48
13235;BME280;6683;48.506;9.050;2023-01-25T03:11:05;99583.84;;;6.17;71.35
13235;BME280;6683;48.506;9.050;2023-01-25T03:14:07;99578.59;;;6.17;71.36
13235;BME280;6683;48.506;9.050;2023-01-25T03:17:10;99579.41;;;6.18;71.64
13235;BME280;6683;48.506;9.050;2023-01-25T03:20:13;99577.47;;;6.20;71.38
13235;BME280;6683;48.506;9.050;2023-01-25T03:23:15;99569.63;;;6.20;71.18
13235;BME280;6683;48.506;9.050;2023-01-25T03:26:21;99567.00;;;6.20;71.28
13235;BME280;6683;48.506;9.050;2023-01-25T03:29:23;99563.56;;;6.19;71.61
13235;BME280;6683;48.506;9.050;2023-01-25T03:32:26;99558.31;;;6.19;71.74
13235;BME280;6683;48.506;9.050;2023-01-25T03:35:28;99551.41;;;6.18;71.34
13235;BME280;6683;48.506;9.050;2023-01-25T03:38:31;99550.56;;;6.18;71.26
13235;BME280;6683;48.506;9.050;2023-01-25T03:41:35;99539.25;;;6.17;71.29
13235;BME280;6683;48.506;9.050;2023-01-25T03:44:38;99549.75;;;6.17;71.58
13235;BME280;6683;48.506;9.050;2023-01-25T03:47:40;99536.75;;;6.16;71.57
13235;BME280;6683;48.506;9.050;2023-01-25T03:50:48;99539.50;;;6.14;71.05
13235;BME280;6683;48.506;9.050;2023-01-25T03:53:51;99537.81;;;6.13;71.78
13235;BME280;6683;48.506;9.050;2023-01-25T03:56:55;99530.81;;;6.14;71.73
13235;BME280;6683;48.506;9.050;2023-01-25T03:59:58;99532.59;;;6.13;71.60
13235;BME280;6683;48.506;9.050;2023-01-25T04:03:00;99537.81;;;6.13;71.72
13235;BME280;6683;48.506;9.050;2023-01-25T04:06:04;99543.78;;;6.15;71.42
13235;BME280;6683;48.506;9.050;2023-01-25T04:09:07;99542.97;;;6.15;71.16
13235;BME280;6683;48.506;9.050;2023-01-25T04:12:11;99543.91;;;6.14;71.09
13235;BME280;6683;48.506;9.050;2023-01-25T04:15:14;99533.41;;;6.14;71.31
13235;BME280;6683;48.506;9.050;2023-01-25T04:18:18;99534.41;;;6.13;71.09
13235;BME280;6683;48.506;9.050;2023-01-25T04:21:21;99530.81;;;6.14;71.15
13235;BME280;6683;48.506;9.050;2023-01-25T04:24:24;99522.00;;;6.15;71.44
13235;BME280;6683;48.506;9.050;2023-01-25T04:27:29;99523.63;;;6.16;71.67
13235;BME280;6683;48.506;9.050;2023-01-25T04:30:33;99531.41;;;6.17;71.33
13235;BME280;6683;48.506;9.050;2023-01-25T04:33:36;99534.84;;;6.18;71.44
13235;BME280;6683;48.506;9.050;2023-01-25T04:36:39;99537.44;;;6.18;71.50
13235;BME280;6683;48.506;9.050;2023-01-25T04:39:41;99534.84;;;6.18;71.55
13235;BME280;6683;48.506;9.050;2023-01-25T04:42:45;99537.59;;;6.16;71.08
13235;BME280;6683;48.506;9.050;2023-01-25T04:45:47;99540.22;;;6.16;71.66
13235;BME280;6683;48.506;9.050;2023-01-25T04:48:50;99537.59;;;6.16;71.44
13235;BME280;6683;48.506;9.050;2023-01-25T04:51:52;99536.66;;;6.17;71.83
13235;BME280;6683;48.506;9.050;2023-01-25T04:54:54;99534.97;;;6.16;71.31
13235;BME280;6683;48.506;9.050;2023-01-25T04:57:58;99528.19;;;6.14;71.13
13235;BME280;6683;48.506;9.050;2023-01-25T05:01:00;99530.81;;;6.14;71.31
13235;BME280;6683;48.506;9.050;2023-01-25T05:04:03;99520.31;;;6.14;71.72
13235;BME280;6683;48.506;9.050;2023-01-25T05:07:05;99525.56;;;6.14;71.16
13235;BME280;6683;48.506;9.050;2023-01-25T05:10:09;99514.38;;;6.12;71.20
13235;BME280;6683;48.506;9.050;2023-01-25T05:13:13;99521.28;;;6.13;71.26
13235;BME280;6683;48.506;9.050;2023-01-25T05:16:16;99517.69;;;6.14;71.44
13235;BME280;6683;48.506;9.050;2023-01-25T05:19:18;99523.91;;;6.13;70.96
13235;BME280;6683;48.506;9.050;2023-01-25T05:22:20;99521.28;;;6.13;71.34
13235;BME280;6683;48.506;9.050;2023-01-25T05:25:23;99519.59;;;6.12;71.23
13235;BME280;6683;48.506;9.050;2023-01-25T05:28:44;99517.97;;;6.11;71.49
13235;BME280;6683;48.506;9.050;2023-01-25T05:31:47;99513.53;;;6.11;71.37
13235;BME280;6683;48.506;9.050;2023-01-25T05:34:50;99509.13;;;6.12;71.76
13235;BME280;6683;48.506;9.050;2023-01-25T05:37:56;99516.03;;;6.13;71.87
13235;BME280;6683;48.506;9.050;2023-01-25T05:40:58;99508.19;;;6.13;71.58
13235;BME280;6683;48.506;9.050;2023-01-25T05:44:02;99513.53;;;6.11;71.33
13235;BME280;6683;48.506;9.050;2023-01-25T05:47:05;99510.81;;;6.13;71.15
13235;BME280;6683;48.506;9.050;2023-01-25T05:50:09;99509.97;;;6.12;71.17
13235;BME280;6683;48.506;9.050;2023-01-25T05:53:11;99505.56;;;6.13;71.61
13235;BME280;6683;48.506;9.050;2023-01-25T05:56:14;99503.88;;;6.12;71.72
13235;BME280;6683;48.506;9.050;2023-01-25T05:59:18;99506.38;;;6.13;71.25
13235;BME280;6683;48.506;9.050;2023-01-25T06:02:21;99506.38;;;6.13;71.11
13235;BME280;6683;48.506;9.050;2023-01-25T06:05:23;99500.56;;;6.10;71.59
13235;BME280;6683;48.506;9.050;2023-01-25T06:08:26;99511.75;;;6.12;71.31
13235;BME280;6683;48.506;9.050;2023-01-25T06:11:29;99505.56;;;6.13;71.27
13235;BME280;6683;48.506;9.050;2023-01-25T06:14:32;99508.19;;;6.13;71.03
13235;BME280;6683;48.506;9.050;2023-01-25T06:17:34;99503.03;;;6.11;71.23
13235;BME280;6683;48.506;9.050;2023-01-25T06:20:37;99497.81;;;6.11;71.07
13235;BME280;6683;48.506;9.050;2023-01-25T06:23:39;99501.25;;;6.12;71.10
13235;BME280;6683;48.506;9.050;2023-01-25T06:26:42;99501.25;;;6.12;71.34
13235;BME280;6683;48.506;9.050;2023-01-25T06:29:45;99501.25;;;6.12;71.08
13235;BME280;6683;48.506;9.050;2023-01-25T06:32:48;99504.72;;;6.12;71.61
13235;BME280;6683;48.506;9.050;2023-01-25T06:35:51;99501.97;;;6.14;71.06
13235;BME280;6683;48.506;9.050;2023-01-25T06:38:54;99503.66;;;6.15;71.48
13235;BME280;6683;48.506;9.050;2023-01-25T06:41:56;99499.22;;;6.15;71.54
13235;BME280;6683;48.506;9.050;2023-01-25T06:44:59;99512.31;;;6.15;71.39
13235;BME280;6683;48.506;9.050;2023-01-25T06:48:02;99505.28;;;6.16;71.08
13235;BME280;6683;48.506;9.050;2023-01-25T06:51:08;99506.25;;;6.15;71.35
13235;BME280;6683;48.506;9.050;2023-01-25T06:54:11;99507.91;;;6.16;71.20
13235;BME280;6683;48.506;9.050;2023-01-25T06:57:14;99506.97;;;6.17;71.46
13235;BME280;6683;48.506;9.050;2023-01-25T07:00:18;99506.97;;;6.17;71.29
13235;BME280;6683;48.506;9.050;2023-01-25T07:03:21;99497.31;;;6.17;71.27
13235;BME280;6683;48.506;9.050;2023-01-25T07:06:24;99490.41;;;6.16;71.46
13235;BME280;6683;48.506;9.050;2023-01-25T07:09:27;99484.22;;;6.17;71.28
13235;BME280;6683;48.506;9.050;2023-01-25T07:12:29;99486.84;;;6.17;71.30
13235;BME280;6683;48.506;9.050;2023-01-25T07:15:33;99486.84;;;6.17;71.02
13235;BME280;6683;48.506;9.050;2023-01-25T07:18:36;99480.75;;;6.17;71.07
13235;BME280;6683;48.506;9.050;2023-01-25T07:21:38;99476.34;;;6.17;71.32
13235;BME280;6683;48.506;9.050;2023-01-25T07:24:41;99470.28;;;6.17;71.42
13235;BME280;6683;48.506;9.050;2023-01-25T07:27:49;99464.88;;;6.18;71.44
13235;BME280;6683;48.506;9.050;2023-01-25T07:30:53;99471.81;;;6.19;71.20
13235;BME280;6683;48.506;9.050;2023-01-25T07:33:57;99456.09;;;6.19;71.58
13235;BME280;6683;48.506;9.050;2023-01-25T07:36:59;99460.22;;;6.22;71.29
13235;BME280;6683;48.506;9.050;2023-01-25T07:40:02;99454.03;;;6.23;70.96
13235;BME280;6683;48.506;9.050;2023-01-25T07:43:05;99456.66;;;6.23;70.90
13235;BME280;6683;48.506;9.050;2023-01-25T07:46:10;99453.88;;;6.24;71.47
13235;BME280;6683;48.506;9.050;2023-01-25T07:49:13;99459.00;;;6.26;71.11
13235;BME280;6683;48.506;9.050;2023-01-25T07:52:16;99473.78;;;6.27;71.03
13235;BME280;6683;48.506;9.050;2023-01-25T07:55:18;99464.25;;;6.26;71.03
13235;BME280;6683;48.506;9.050;2023-01-25T07:58:20;99460.66;;;6.27;70.75
13235;BME280;6683;48.506;9.050;2023-01-25T08:01:26;99453.75;;;6.26;71.38
13235;BME280;6683;48.506;9.050;2023-01-25T08:04:29;99451.81;;;6.28;71.11
13235;BME280;6683;48.506;9.050;2023-01-25T08:07:31;99456.97;;;6.29;70.80
13235;BME280;6683;48.506;9.050;2023-01-25T08:10:34;99456.84;;;6.31;71.24
13235;BME280;6683;48.506;9.050;2023-01-25T08:13:36;99468.16;;;6.31;70.56
13235;BME280;6683;48.506;9.050;2023-01-25T08:16:40;99469.94;;;6.31;70.74
13235;BME280;6683;48.506;9.050;2023-01-25T08:19:42;99472.56;;;6.31;70.66
13235;BME280;6683;48.506;9.050;2023-01-25T08:22:45;99473.41;;;6.31;70.68
13235;BME280;6683;48.506;9.050;2023-01-25T08:25:47;99465.53;;;6.31;70.74
13235;BME280;6683;48.506;9.050;2023-01-25T08:28:50;99467.47;;;6.29;70.49
13235;BME280;6683;48.506;9.050;2023-01-25T08:31:54;99468.41;;;6.28;70.64
13235;BME280;6683;48.506;9.050;2023-01-25T08:34:57;99460.44;;;6.30;70.59
13235;BME280;6683;48.506;9.050;2023-01-25T08:37:59;99451.72;;;6.29;71.08
13235;BME280;6683;48.506;9.050;2023-01-25T08:41:05;99454.34;;;6.29;70.49
13235;BME280;6683;48.506;9.050;2023-01-25T08:44:08;99449.09;;;6.29;70.83
13235;BME280;6683;48.506;9.050;2023-01-25T08:47:13;99450.75;;;6.30;70.83
13235;BME280;6683;48.506;9.050;2023-01-25T08:50:16;99441.09;;;6.31;71.17
13235;BME280;6683;48.506;9.050;2023-01-25T08:53:18;99452.28;;;6.33;70.38
13235;BME280;6683;48.506;9.050;2023-01-25T08:56:21;99444.28;;;6.34;70.74
13235;BME280;6683;48.506;9.050;2023-01-25T08:59:24;99447.59;;;6.36;70.56
13235;BME280;6683;48.506;9.050;2023-01-25T09:02:27;99435.19;;;6.38;70.63
13235;BME280;6683;48.506;9.050;2023-01-25T09:05:31;99424.59;;;6.40;70.74
13235;BME280;6683;48.506;9.050;2023-01-25T09:08:35;99435.66;;;6.43;70.81
13235;BME280;6683;48.506;9.050;2023-01-25T09:11:38;99424.06;;;6.46;70.68
13235;BME280;6683;48.506;9.050;2023-01-25T09:14:40;99418.81;;;6.46;70.56
13235;BME280;6683;48.506;9.050;2023-01-25T09:17:44;99421.31;;;6.47;70.20
13235;BME280;6683;48.506;9.050;2023-01-25T09:20:47;99412.34;;;6.50;70.62
13235;BME280;6683;48.506;9.050;2023-01-25T09:23:51;99421.06;;;6.51;70.55
13235;BME280;6683;48.506;9.050;2023-01-25T09:26:53;99429.75;;;6.51;70.47
13235;BME280;6683;48.506;9.050;2023-01-25T09:29:56;99428.94;;;6.51;70.36
13235;BME280;6683;48.506;9.050;2023-01-25T09:33:00;99428.34;;;6.47;70.26
13235;BME280;6683;48.506;9.050;2023-01-25T09:36:06;99426.69;;;6.46;70.03
13235;BME280;6683;48.506;9.050;2023-01-25T09:39:09;99422.16;;;6.48;70.14
13235;BME280;6683;48.506;9.050;2023-01-25T09:42:37;99418.69;;;6.47;70.54
13235;BME280;6683;48.506;9.050;2023-01-25T09:45:45;99418.53;;;6.49;70.34
13235;BME280;6683;48.506;9.050;2023-01-25T09:48:57;99426.56;;;6.47;70.08
13235;BME280;6683;48.506;9.050;2023-01-25T09:52:24;99416.91;;;6.48;70.44
13235;BME280;6683;48.506;9.050;2023-01-25T09:55:29;99412.34;;;6.50;70.40
13235;BME280;6683;48.506;9.050;2023-01-25T09:58:35;99416.63;;;6.51;70.32
13235;BME280;6683;48.506;9.050;2023-01-25T10:01:47;99419.13;;;6.53;70.09
13235;BME280;6683;48.506;9.050;2023-01-25T10:04:54;99417.47;;;6.52;69.86
13235;BME280;6683;48.506;9.050;2023-01-25T10:08:05;99427.97;;;6.52;70.46
13235;BME280;6683;48.506;9.050;2023-01-25T10:11:15;99416.75;;;6.50;70.08
13235;BME280;6683;48.506;9.050;2023-01-25T10:14:21;99416.91;;;6.48;69.58
13235;BME280;6683;48.506;9.050;2023-01-25T10:17:29;99419.66;;;6.47;69.53
13235;BME280;6683;48.506;9.050;2023-01-25T10:20:42;99417.16;;;6.45;69.81
13235;BME280;6683;48.506;9.050;2023-01-25T10:27:31;99406.56;;;6.47;70.10
13235;BME280;6683;48.506;9.050;2023-01-25T10:30:44;99403.09;;;6.46;70.08
13235;BME280;6683;48.506;9.050;2023-01-25T10:33:50;99393.28;;;6.48;69.80
13235;BME280;6683;48.506;9.050;2023-01-25T10:37:00;99398.53;;;6.48;69.53
13235;BME280;6683;48.506;9.050;2023-01-25T10:40:13;99394.25;;;6.47;69.55
13235;BME280;6683;48.506;9.050;2023-01-25T10:43:20;99390.81;;;6.47;69.79
13235;BME280;6683;48.506;9.050;2023-01-25T10:46:24;99387.91;;;6.50;69.43
13235;BME280;6683;48.506;9.050;2023-01-25T10:49:38;99384.44;;;6.49;69.60
13235;BME280;6683;48.506;9.050;2023-01-25T10:52:57;99373.97;;;6.49;69.56
13235;BME280;6683;48.506;9.050;2023-01-25T10:56:22;99371.34;;;6.49;69.64
13235;BME280;6683;48.506;9.050;2023-01-25T10:59:27;99367.06;;;6.48;69.52
13235;BME280;6683;48.506;9.050;2023-01-25T11:02:44;99354.22;;;6.45;69.79
13235;BME280;6683;48.506;9.050;2023-01-25T11:05:52;99368.00;;;6.47;69.63
13235;BME280;6683;48.506;9.050;2023-01-25T11:08:57;99350.63;;;6.46;69.17
13235;BME280;6683;48.506;9.050;2023-01-25T11:12:01;99355.88;;;6.46;69.72
13235;BME280;6683;48.506;9.050;2023-01-25T11:15:22;99349.81;;;6.45;69.23
13235;BME280;6683;48.506;9.050;2023-01-25T11:18:28;99352.56;;;6.44;69.33
13235;BME280;6683;48.506;9.050;2023-01-25T11:21:33;99350.88;;;6.43;69.36
13235;BME280;6683;48.506;9.050;2023-01-25T11:24:37;99347.72;;;6.39;69.48
13235;BME280;6683;48.506;9.050;2023-01-25T11:27:39;99352.13;;;6.39;69.34
13235;BME280;6683;48.506;9.050;2023-01-25T11:30:42;99360.25;;;6.36;69.50
13235;BME280;6683;48.506;9.050;2023-01-25T11:33:44;99349.88;;;6.34;69.20
13235;BME280;6683;48.506;9.050;2023-01-25T11:37:14;99349.06;;;6.34;69.44
13235;BME280;6683;48.506;9.050;2023-01-25T11:40:25;99350.72;;;6.35;69.21
13235;BME280;6683;48.506;9.050;2023-01-25T11:43:55;99343.84;;;6.34;69.51
13235;BME280;6683;48.506;9.050;2023-01-25T11:47:08;99335.13;;;6.33;69.33
13235;BME280;6683;48.506;9.050;2023-01-25T11:50:18;99326.56;;;6.31;69.30
13235;BME280;6683;48.506;9.050;2023-01-25T11:53:55;99321.47;;;6.30;69.40
13235;BME280;6683;48.506;9.050;2023-01-25T11:57:13;99310.25;;;6.28;69.29
13235;BME280;6683;48.506;9.050;2023-01-25T12:00:41;99293.72;;;6.27;69.89
13235;BME280;6683;48.506;9.050;2023-01-25T12:04:44;99295.34;;;6.28;69.70
13235;BME280;6683;48.506;9.050;2023-01-25T12:08:04;99297.28;;;6.26;69.83
13235;BME280;6683;48.506;9.050;2023-01-25T12:11:25;99286.78;;;6.26;69.59
13235;BME280;6683;48.506;9.050;2023-01-25T12:15:05;99283.22;;;6.27;69.60
13235;BME280;6683;48.506;9.050;2023-01-25T12:18:44;99277.84;;;6.29;69.66
13235;BME280;6683;48.506;9.050;2023-01-25T12:22:04;99270.91;;;6.28;69.44
13235;BME280;6683;48.506;9.050;2023-01-25T12:25:22;99264.72;;;6.29;69.30
13235;BME280;6683;48.506;9.050;2023-01-25T12:28:31;99255.91;;;6.30;69.39
13235;BME280;6683;48.506;9.050;2023-01-25T12:31:41;99246.38;;;6.29;69.36
13235;BME280;6683;48.506;9.050;2023-01-25T12:35:01;99238.50;;;6.29;69.40
13235;BME280;6683;48.506;9.050;2023-01-25T12:38:21;99227.47;;;6.25;69.55
13235;BME280;6683;48.506;9.050;2023-01-25T12:41:37;99217.94;;;6.24;69.54
13235;BME280;6683;48.506;9.050;2023-01-25T12:44:43;99210.06;;;6.24;69.24
13235;BME280;6683;48.506;9.050;2023-01-25T12:47:54;99204.97;;;6.23;69.38
13235;BME280;6683;48.506;9.050;2023-01-25T12:50:59;99206.75;;;6.22;69.29
13235;BME280;6683;48.506;9.050;2023-01-25T12:54:10;99200.97;;;6.19;69.47
13235;BME280;6683;48.506;9.050;2023-01-25T12:57:21;99193.25;;;6.17;69.04
13235;BME280;6683;48.506;9.050;2023-01-25T13:00:33;99189.19;;;6.13;69.48
13235;BME280;6683;48.506;9.050;2023-01-25T13:03:50;99186.16;;;6.08;69.11
13235;BME280;6683;48.506;9.050;2023-01-25T13:07:02;99187.94;;;6.08;68.93
13235;BME280;6683;48.506;9.050;2023-01-25T13:10:15;99180.09;;;6.08;69.36
13235;BME280;6683;48.506;9.050;2023-01-25T13:13:22;99172.09;;;6.09;69.65
13235;BME280;6683;48.506;9.050;2023-01-25T13:16:37;99174.59;;;6.11;69.84
13235;BME280;6683;48.506;9.050;2023-01-25T13:19:44;99168.38;;;6.12;68.91
13235;BME280;6683;48.506;9.050;2023-01-25T13:22:54;99163.13;;;6.12;69.33
13235;BME280;6683;48.506;9.050;2023-01-25T13:26:43;99158.88;;;6.11;69.75
13235;BME280;6683;48.506;9.050;2023-01-25T13:29:58;99154.44;;;6.11;69.69
13235;BME280;6683;48.506;9.050;2023-01-25T13:33:03;99145.75;;;6.11;69.63
13235;BME280;6683;48.506;9.050;2023-01-25T13:36:47;99147.25;;;6.13;69.71
13235;BME280;6683;48.506;9.050;2023-01-25T13:39:51;99145.47;;;6.14;69.56
13235;BME280;6683;48.506;9.050;2023-01-25T13:43:00;99141.22;;;6.13;69.57
13235;BME280;6683;48.506;9.050;2023-01-25T13:46:04;99142.16;;;6.12;69.38
13235;BME280;6683;48.506;9.050;2023-01-25T13:49:21;99137.75;;;6.12;69.43
13235;BME280;6683;48.506;9.050;2023-01-25T13:52:28;99140.22;;;6.14;69.61
13235;BME280;6683;48.506;9.050;2023-01-25T13:55:39;99131.53;;;6.13;69.48
13235;BME280;6683;48.506;9.050;2023-01-25T13:58:45;99124.50;;;6.14;69.45
13235;BME280;6683;48.506;9.050;2023-01-25T14:01:49;99122.03;;;6.12;69.39
13235;BME280;6683;48.506;9.050;2023-01-25T14:04:52;99130.03;;;6.11;69.36
13235;BME280;6683;48.506;9.050;2023-01-25T14:07:56;99132.78;;;6.09;69.16
13235;BME280;6683;48.506;9.050;2023-01-25T14:10:59;99126.03;;;6.07;69.38
13235;BME280;6683;48.506;9.050;2023-01-25T14:14:16;99123.66;;;6.04;69.49
13235;BME280;6683;48.506;9.050;2023-01-25T14:17:21;99120.34;;;6.02;69.02
13235;BME280;6683;48.506;9.050;2023-01-25T14:20:24;99119.66;;;6.00;69.47
13235;BME280;6683;48.506;9.050;2023-01-25T14:23:29;99119.50;;;6.01;69.16
13235;BME280;6683;48.506;9.050;2023-01-25T14:26:33;99116.78;;;6.03;69.63
13235;BME280;6683;48.506;9.050;2023-01-25T14:29:37;99122.03;;;6.03;69.08
13235;BME280;6683;48.506;9.050;2023-01-25T14:32:41;99113.19;;;6.04;69.04
13235;BME280;6683;48.506;9.050;2023-01-25T14:35:44;99109.72;;;6.03;69.53
13235;BME280;6683;48.506;9.050;2023-01-25T14:38:48;99124.50;;;6.04;69.24
13235;BME280;6683;48.506;9.050;2023-01-25T14:41:51;99112.22;;;6.05;69.00
13235;BME280;6683;48.506;9.050;2023-01-25T14:44:54;99120.09;;;6.05;69.14
13235;BME280;6683;48.506;9.050;2023-01-25T14:47:56;99116.63;;;6.04;69.33
13235;BME280;6683;48.506;9.050;2023-01-25T14:51:04;99117.47;;;6.05;69.52
13235;BME280;6683;48.506;9.050;2023-01-25T14:54:16;99108.91;;;6.03;69.47
13235;BME280;6683;48.506;9.050;2023-01-25T14:57:32;99109.88;;;6.02;69.38
13235;BME280;6683;48.506;9.050;2023-01-25T15:00:36;99099.25;;;6.03;69.56
13235;BME280;6683;48.506;9.050;2023-01-25T15:03:41;99105.19;;;6.05;69.25
13235;BME280;6683;48.506;9.050;2023-01-25T15:06:47;99107.78;;;6.05;69.25
13235;BME280;6683;48.506;9.050;2023-01-25T15:10:03;99107.78;;;6.05;69.32
13235;BME280;6683;48.506;9.050;2023-01-25T15:13:22;99098.28;;;6.04;69.10
13235;BME280;6683;48.506;9.050;2023-01-25T15:16:32;99088.91;;;6.02;69.45
13235;BME280;6683;48.506;9.050;2023-01-25T15:19:35;99076.63;;;6.02;69.39
13235;BME280;6683;48.506;9.050;2023-01-25T15:22:37;99077.72;;;6.00;68.95
13235;BME280;6683;48.506;9.050;2023-01-25T15:25:50;99075.25;;;5.98;69.55
13235;BME280;6683;48.506;9.050;2023-01-25T15:28:55;99064.88;;;5.97;69.39
13235;BME280;6683;48.506;9.050;2023-01-25T15:31:58;99065.88;;;5.96;69.36
13235;BME280;6683;48.506;9.050;2023-01-25T15:35:01;99058.00;;;5.96;69.61
13235;BME280;6683;48.506;9.050;2023-01-25T15:38:08;99055.53;;;5.94;69.41
13235;BME280;6683;48.506;9.050;2023-01-25T15:41:13;99051.38;;;5.92;69.20
13235;BME280;6683;48.506;9.050;2023-01-25T15:44:18;99050.00;;;5.88;68.92
13235;BME280;6683;48.506;9.050;2023-01-25T15:47:21;99044.63;;;5.89;69.05
13235;BME280;6683;48.506;9.050;2023-01-25T15:50:24;99038.44;;;5.90;69.50
13235;BME280;6683;48.506;9.050;2023-01-25T15:53:29;99035.66;;;5.92;69.19
13235;BME280;6683;48.506;9.050;2023-01-25T15:56:34;99034.00;;;5.91;69.58
13235;BME280;6683;48.506;9.050;2023-01-25T15:59:37;99031.38;;;5.91;69.50
13235;BME280;6683;48.506;9.050;2023-01-25T16:02:40;99027.13;;;5.90;68.96
13235;BME280;6683;48.506;9.050;2023-01-25T16:05:42;99022.56;;;5.92;69.66
13235;BME280;6683;48.506;9.050;2023-01-25T16:08:45;99013.88;;;5.91;69.49
13235;BME280;6683;48.506;9.050;2023-01-25T16:11:51;99015.81;;;5.89;69.59
13235;BME280;6683;48.506;9.050;2023-01-25T16:14:53;99011.53;;;5.88;69.21
13235;BME280;6683;48.506;9.050;2023-01-25T16:17:56;99006.16;;;5.90;68.97
13235;BME280;6683;48.506;9.050;2023-01-25T16:20:58;99007.00;;;5.90;68.93
13235;BME280;6683;48.506;9.050;2023-01-25T16:24:01;99007.00;;;5.90;69.05
13235;BME280;6683;48.506;9.050;2023-01-25T16:27:07;99002.69;;;5.89;69.57
13235;BME280;6683;48.506;9.050;2023-01-25T16:30:18;98999.25;;;5.89;69.15
13235;BME280;6683;48.506;9.050;2023-01-25T16:33:21;98990.44;;;5.90;69.01
13235;BME280;6683;48.506;9.050;2023-01-25T16:36:25;98991.38;;;5.89;69.21
13235;BME280;6683;48.506;9.050;2023-01-25T16:39:27;98989.75;;;5.88;69.27
13235;BME280;6683;48.506;9.050;2023-01-25T16:42:33;98988.06;;;5.87;69.66
13235;BME280;6683;48.506;9.050;2023-01-25T16:45:36;98985.47;;;5.87;69.52
13235;BME280;6683;48.506;9.050;2023-01-25T16:48:39;98991.38;;;5.89;69.21
13235;BME280;6683;48.506;9.050;2023-01-25T16:51:42;98980.78;;;5.90;69.04
13235;BME280;6683;48.506;9.050;2023-01-25T16:54:45;98984.34;;;5.89;69.42
13235;BME280;6683;48.506;9.050;2023-01-25T16:57:50;98977.47;;;5.88;69.35